createdAt,value
2022-08-05T00:01:29.071Z,11.63
2022-08-05T00:03:56.984Z,12.00
2022-08-05T00:06:32.302Z,12.02
2022-08-05T00:09:00.795Z,12.20
2022-08-05T00:11:34.581Z,11.85
2022-08-05T00:14:02.402Z,11.82
2022-08-05T00:16:52.050Z,11.55
2022-08-05T00:19:23.318Z,11.75
2022-08-05T00:21:51.543Z,11.45
2022-08-05T00:24:24.197Z,12.02
2022-08-05T00:26:52.844Z,11.80
2022-08-05T00:29:22.531Z,11.90
2022-08-05T00:32:10.883Z,11.90
2022-08-05T00:34:55.860Z,12.00
2022-08-05T00:37:23.111Z,11.88
2022-08-05T00:39:57.962Z,11.57
2022-08-05T00:42:39.833Z,11.80
2022-08-05T00:45:11.629Z,12.50
2022-08-05T00:47:56.706Z,12.25
2022-08-05T00:50:25.170Z,12.20
2022-08-05T00:52:53.340Z,11.90
2022-08-05T00:55:21.707Z,11.93
2022-08-05T00:57:58.338Z,12.13
2022-08-05T01:00:27.874Z,12.05
2022-08-05T01:02:55.704Z,12.13
2022-08-05T01:05:22.746Z,12.15
2022-08-05T01:08:29.702Z,12.10
2022-08-05T01:10:54.142Z,12.43
2022-08-05T01:13:59.160Z,12.55
2022-08-05T01:16:44.263Z,12.40
2022-08-05T01:20:02.184Z,12.18
2022-08-05T01:22:47.556Z,12.20
2022-08-05T01:25:50.268Z,12.38
2022-08-05T01:28:27.757Z,12.25
2022-08-05T01:31:20.217Z,12.13
2022-08-05T01:33:55.410Z,11.90
2022-08-05T01:36:28.447Z,11.63
2022-08-05T01:39:00.182Z,11.60
2022-08-05T01:41:32.628Z,11.50
2022-08-05T01:44:01.952Z,11.20
2022-08-05T01:46:41.415Z,11.63
2022-08-05T01:51:55.947Z,11.90
2022-08-05T01:54:27.180Z,12.00
2022-08-05T01:58:18.881Z,12.50
2022-08-05T01:59:47.276Z,12.38
2022-08-05T02:02:16.045Z,12.38
2022-08-05T02:04:46.293Z,12.40
2022-08-05T02:07:22.194Z,12.57
2022-08-05T02:09:50.994Z,12.70
2022-08-05T02:12:32.983Z,12.80
2022-08-05T02:15:12.717Z,13.13
2022-08-05T02:18:28.136Z,12.95
2022-08-05T02:20:44.174Z,13.40
2022-08-05T02:23:14.836Z,12.80
2022-08-05T02:25:49.179Z,13.32
2022-08-05T02:28:29.250Z,13.27
2022-08-05T02:31:07.590Z,13.18
2022-08-05T02:33:39.631Z,13.93
2022-08-05T02:36:13.555Z,13.30
2022-08-05T02:38:53.426Z,13.52
2022-08-05T02:41:22.875Z,12.88
2022-08-05T02:44:06.098Z,13.07
2022-08-05T02:46:53.356Z,12.55
2022-08-05T02:49:36.983Z,13.27
2022-08-05T02:52:08.633Z,13.80
2022-08-05T02:54:41.510Z,13.75
2022-08-05T02:58:09.385Z,13.55
2022-08-05T03:00:01.339Z,13.65
2022-08-05T03:02:33.008Z,12.95
2022-08-05T03:05:01.491Z,13.25
2022-08-05T03:08:01.898Z,13.20
2022-08-05T03:10:21.748Z,12.88
2022-08-05T03:12:53.654Z,12.90
2022-08-05T03:15:23.507Z,13.00
2022-08-05T03:20:24.428Z,13.70
2022-08-05T03:22:52.757Z,13.02
2022-08-05T03:25:32.956Z,12.80
2022-08-05T03:28:08.625Z,13.65
2022-08-05T03:30:36.736Z,13.20
2022-08-05T03:33:07.521Z,12.90
2022-08-05T03:35:41.256Z,13.02
2022-08-05T03:38:14.387Z,13.02
2022-08-05T03:40:45.070Z,12.73
2022-08-05T03:44:08.996Z,13.15
2022-08-05T03:46:02.984Z,13.35
2022-08-05T03:48:30.657Z,13.65
2022-08-05T03:52:49.027Z,13.55
2022-08-05T03:55:53.091Z,13.90
2022-08-05T03:57:16.467Z,13.70
2022-08-05T03:59:54.727Z,13.88
2022-08-05T04:02:38.934Z,13.27
2022-08-05T04:05:12.993Z,13.40
2022-08-05T04:07:57.602Z,13.70
2022-08-05T04:10:31.972Z,14.07
2022-08-05T04:13:00.689Z,14.00
2022-08-05T04:15:33.282Z,14.00
2022-08-05T04:18:07.073Z,13.90
2022-08-05T04:20:34.625Z,14.60
2022-08-05T04:23:01.658Z,14.90
2022-08-05T04:25:57.714Z,14.40
2022-08-05T04:28:15.229Z,13.73
2022-08-05T04:30:44.494Z,13.77
2022-08-05T04:33:12.787Z,13.63
2022-08-05T04:36:15.648Z,13.88
2022-08-05T04:38:39.143Z,14.43
2022-08-05T04:41:06.149Z,13.88
2022-08-05T04:43:34.220Z,18.42
2022-08-05T04:46:01.110Z,14.90
2022-08-05T04:48:28.495Z,13.27
2022-08-05T04:51:03.648Z,13.65
2022-08-05T04:53:38.630Z,14.00
2022-08-05T04:56:32.275Z,13.85
2022-08-05T04:58:54.790Z,13.40
2022-08-05T05:02:06.372Z,13.77
2022-08-05T05:04:08.382Z,14.10
2022-08-05T05:06:44.556Z,13.70
2022-08-05T05:09:17.426Z,12.70
2022-08-05T05:11:54.042Z,13.18
2022-08-05T05:14:31.365Z,13.13
2022-08-05T05:17:00.247Z,15.80
2022-08-05T05:19:36.466Z,14.75
2022-08-05T05:22:22.696Z,13.75
2022-08-05T05:24:58.035Z,14.63
2022-08-05T05:27:41.517Z,14.90
2022-08-05T05:30:29.275Z,14.27
2022-08-05T05:33:00.971Z,15.38
2022-08-05T05:35:37.969Z,15.90
2022-08-05T05:38:13.778Z,15.10
2022-08-05T05:40:49.656Z,15.68
2022-08-05T05:43:27.629Z,15.27
2022-08-05T05:46:13.646Z,15.13
2022-08-05T05:48:44.165Z,15.55
2022-08-05T05:51:15.299Z,17.55
2022-08-05T05:53:54.343Z,15.73
2022-08-05T05:56:32.750Z,15.55
2022-08-05T05:59:06.654Z,15.70
2022-08-05T06:01:39.750Z,15.35
2022-08-05T06:04:12.710Z,15.20
2022-08-05T06:06:47.360Z,15.30
2022-08-05T06:09:17.291Z,14.75
2022-08-05T06:12:01.675Z,15.15
2022-08-05T06:14:33.340Z,15.68
2022-08-05T06:17:01.906Z,15.73
2022-08-05T06:19:57.093Z,15.57
2022-08-05T06:22:35.889Z,15.85
2022-08-05T06:25:24.277Z,15.35
2022-08-05T06:28:10.783Z,15.32
2022-08-05T06:30:38.801Z,15.23
2022-08-05T06:33:09.862Z,15.55
2022-08-05T06:36:07.576Z,14.98
2022-08-05T06:38:36.223Z,14.80
2022-08-05T06:41:04.968Z,15.43
2022-08-05T06:43:58.189Z,14.98
2022-08-05T06:46:18.944Z,14.82
2022-08-05T06:48:55.664Z,15.40
2022-08-05T06:51:29.494Z,15.68
2022-08-05T06:53:59.304Z,14.73
2022-08-05T06:56:27.809Z,16.13
2022-08-05T06:58:55.661Z,15.13
2022-08-05T07:01:22.875Z,14.82
2022-08-05T07:03:49.932Z,15.50
2022-08-05T07:06:20.632Z,15.52
2022-08-05T07:08:51.681Z,15.57
2022-08-05T07:11:25.347Z,15.98
2022-08-05T07:14:20.010Z,16.20
2022-08-05T07:18:00.693Z,18.13
2022-08-05T07:20:29.854Z,16.23
2022-08-05T07:22:28.614Z,15.00
2022-08-05T07:25:23.300Z,15.57
2022-08-05T07:27:57.087Z,14.73
2022-08-05T07:30:32.057Z,15.05
2022-08-05T07:33:00.939Z,13.68
2022-08-05T07:36:02.762Z,14.85
2022-08-05T07:38:33.677Z,14.05
2022-08-05T07:42:07.317Z,15.02
2022-08-05T07:43:51.235Z,15.00
2022-08-05T07:46:23.532Z,15.02
2022-08-05T07:49:01.397Z,14.90
2022-08-05T07:51:40.362Z,15.18
2022-08-05T07:54:09.624Z,14.85
2022-08-05T07:57:01.237Z,15.10
2022-08-05T07:59:39.047Z,14.48
2022-08-05T08:02:15.291Z,15.25
2022-08-05T08:04:43.143Z,14.38
2022-08-05T08:07:12.370Z,14.32
2022-08-05T08:09:39.137Z,14.77
2022-08-05T08:12:15.932Z,14.68
2022-08-05T08:14:47.192Z,13.45
2022-08-05T08:17:16.220Z,14.75
2022-08-05T08:20:22.309Z,13.80
2022-08-05T08:22:32.401Z,14.20
2022-08-05T08:25:03.374Z,14.27
2022-08-05T08:27:35.651Z,15.45
2022-08-05T08:30:30.188Z,16.63
2022-08-05T08:33:01.709Z,15.82
2022-08-05T08:35:35.036Z,15.60
2022-08-05T08:38:11.604Z,15.57
2022-08-05T08:40:48.934Z,15.70
2022-08-05T08:45:16.519Z,15.10
2022-08-05T08:46:09.898Z,15.65
2022-08-05T08:48:59.694Z,15.50
2022-08-05T08:52:03.623Z,15.05
2022-08-05T08:54:18.379Z,14.98
2022-08-05T08:56:45.144Z,13.93
2022-08-05T08:59:19.381Z,14.50
2022-08-05T09:01:57.338Z,14.18
2022-08-05T09:04:30.335Z,13.90
2022-08-05T09:06:58.446Z,14.68
2022-08-05T09:09:34.554Z,14.30
2022-08-05T09:12:14.409Z,15.60
2022-08-05T09:14:58.065Z,15.57
2022-08-05T09:17:42.618Z,16.10
2022-08-05T09:23:19.137Z,15.40
2022-08-05T09:26:02.703Z,14.75
2022-08-05T09:28:33.427Z,15.00
2022-08-05T09:31:23.330Z,14.80
2022-08-05T09:33:59.286Z,15.05
2022-08-05T09:36:55.279Z,15.85
2022-08-05T09:39:41.550Z,15.73
2022-08-05T09:42:24.048Z,15.80
2022-08-05T09:44:57.505Z,15.48
2022-08-05T09:47:36.540Z,15.20
2022-08-05T09:50:37.586Z,14.90
2022-08-05T09:53:05.059Z,14.77
2022-08-05T09:55:56.699Z,14.73
2022-08-05T09:58:23.745Z,14.73
2022-08-05T10:01:02.216Z,15.20
2022-08-05T10:03:58.915Z,15.13
2022-08-05T10:06:28.075Z,14.90
2022-08-05T10:08:55.785Z,14.38
2022-08-05T10:11:23.004Z,14.27
2022-08-05T10:13:49.826Z,14.43
2022-08-05T10:16:41.721Z,14.48
2022-08-05T10:19:23.462Z,15.57
2022-08-05T10:21:58.657Z,14.55
2022-08-05T10:24:27.105Z,13.68
2022-08-05T10:27:00.304Z,14.68
2022-08-05T10:30:49.530Z,14.25
2022-08-05T10:32:52.645Z,14.00
2022-08-05T10:35:03.959Z,14.95
2022-08-05T10:37:41.368Z,14.20
2022-08-05T10:40:22.343Z,13.40
2022-08-05T10:43:00.433Z,13.55
2022-08-05T10:45:30.695Z,13.50
2022-08-05T10:51:21.975Z,13.88
2022-08-05T10:53:58.574Z,13.50
2022-08-05T10:56:53.302Z,13.77
2022-08-05T11:00:04.429Z,13.10
2022-08-05T11:02:34.943Z,13.50
2022-08-05T11:05:09.472Z,13.67
2022-08-05T11:08:12.739Z,12.80
2022-08-05T11:10:50.278Z,12.50
2022-08-05T11:13:55.069Z,12.80
2022-08-05T11:16:47.491Z,13.18
2022-08-05T11:20:17.583Z,14.30
2022-08-05T11:22:49.729Z,13.63
2022-08-05T11:26:04.903Z,14.77
2022-08-05T11:28:35.873Z,13.82
2022-08-05T11:31:06.529Z,13.20
2022-08-05T11:33:48.210Z,13.88
2022-08-05T11:36:34.669Z,13.98
2022-08-05T11:42:01.232Z,14.32
2022-08-05T11:44:52.966Z,13.75
2022-08-05T11:47:49.831Z,13.90
2022-08-05T11:50:14.447Z,13.95
2022-08-05T11:52:48.838Z,13.73
2022-08-05T11:55:17.065Z,14.15
2022-08-05T11:58:10.416Z,13.57
2022-08-05T12:00:37.984Z,15.30
2022-08-05T12:03:28.548Z,50.63
2022-08-05T12:06:03.107Z,15.63
2022-08-05T12:08:33.791Z,16.10
2022-08-05T12:11:05.705Z,15.13
2022-08-05T12:13:48.403Z,14.20
2022-08-05T12:16:20.459Z,13.88
2022-08-05T12:18:57.682Z,14.32
2022-08-05T12:21:30.068Z,14.20
2022-08-05T12:24:08.922Z,13.73
2022-08-05T12:26:44.839Z,13.90
2022-08-05T12:29:17.904Z,12.55
2022-08-05T12:31:53.953Z,13.82
2022-08-05T12:34:28.447Z,13.85
2022-08-05T12:36:58.812Z,13.38
2022-08-05T12:39:27.958Z,12.77
2022-08-05T12:42:02.429Z,13.48
2022-08-05T12:44:34.046Z,14.25
2022-08-05T12:47:02.213Z,13.02
2022-08-05T12:50:03.202Z,13.50
2022-08-05T12:52:38.502Z,13.50
2022-08-05T12:55:25.488Z,15.40
2022-08-05T12:58:51.067Z,14.45
2022-08-05T13:02:03.018Z,14.23
2022-08-05T13:03:32.610Z,14.13
2022-08-05T13:06:01.313Z,14.27
2022-08-05T13:08:32.324Z,14.18
2022-08-05T13:11:01.301Z,14.10
2022-08-05T13:14:06.053Z,14.23
2022-08-05T13:16:17.402Z,14.35
2022-08-05T13:18:58.865Z,16.15
2022-08-05T13:21:37.870Z,15.10
2022-08-05T13:24:27.760Z,14.20
2022-08-05T13:27:04.137Z,13.70
2022-08-05T13:29:37.547Z,14.48
2022-08-05T13:32:05.555Z,15.02
2022-08-05T13:34:32.979Z,14.50
2022-08-05T13:37:00.494Z,15.30
2022-08-05T13:40:16.783Z,14.82
2022-08-05T13:42:15.270Z,14.30
2022-08-05T13:44:46.309Z,15.07
2022-08-05T13:47:36.006Z,14.00
2022-08-05T13:50:09.548Z,14.05
2022-08-05T13:52:41.251Z,13.48
2022-08-05T13:55:09.891Z,14.52
2022-08-05T13:57:50.545Z,14.30
2022-08-05T14:00:19.744Z,14.00
2022-08-05T14:02:54.242Z,14.40
2022-08-05T14:05:29.699Z,14.10
2022-08-05T14:08:10.934Z,13.82
2022-08-05T14:10:47.702Z,13.95
2022-08-05T14:13:15.278Z,13.25
2022-08-05T14:16:05.574Z,13.18
2022-08-05T14:18:29.322Z,13.57
2022-08-05T14:20:56.040Z,13.77
2022-08-05T14:23:25.440Z,14.30
2022-08-05T14:25:58.822Z,13.90
2022-08-05T14:28:29.368Z,14.00
2022-08-05T14:31:00.790Z,13.40
2022-08-05T14:33:57.067Z,13.50
2022-08-05T14:36:21.317Z,13.00
2022-08-05T14:38:50.058Z,13.90
2022-08-05T14:41:18.536Z,14.25
2022-08-05T14:43:58.953Z,13.73
2022-08-05T14:46:30.602Z,14.38
2022-08-05T14:48:59.697Z,12.85
2022-08-05T14:54:27.665Z,12.48
2022-08-05T14:56:56.503Z,13.90
2022-08-05T14:59:23.548Z,13.23
2022-08-05T15:01:50.514Z,13.55
2022-08-05T15:04:20.546Z,14.88
2022-08-05T15:06:51.801Z,13.80
2022-08-05T15:09:51.495Z,13.95
2022-08-05T15:12:07.085Z,14.27
2022-08-05T15:14:48.247Z,13.60
2022-08-05T15:17:47.674Z,12.38
2022-08-05T15:20:05.041Z,15.38
2022-08-05T15:22:31.751Z,13.70
2022-08-05T15:24:59.331Z,12.80
2022-08-05T15:27:26.398Z,13.30
2022-08-05T15:29:59.289Z,13.88
2022-08-05T15:32:26.690Z,12.80
2022-08-05T15:34:55.376Z,12.48
2022-08-05T15:38:31.935Z,12.90
2022-08-05T15:40:59.836Z,12.70
2022-08-05T15:43:07.950Z,13.20
2022-08-05T15:45:39.009Z,12.55
2022-08-05T15:48:06.852Z,14.43
2022-08-05T15:50:33.931Z,13.10
2022-08-05T15:53:06.354Z,13.93
2022-08-05T15:56:03.920Z,13.95
2022-08-05T15:58:23.239Z,14.45
2022-08-05T16:01:04.319Z,14.55
2022-08-05T16:03:40.975Z,13.98
2022-08-05T16:06:09.326Z,14.02
2022-08-05T16:11:05.284Z,14.57
2022-08-05T16:13:34.726Z,14.88
2022-08-05T16:16:04.765Z,16.08
2022-08-05T16:18:33.019Z,15.25
2022-08-05T16:21:04.327Z,15.88
2022-08-05T16:23:33.102Z,15.48
2022-08-05T16:26:19.165Z,15.73
2022-08-05T16:28:53.034Z,14.98
2022-08-05T16:31:21.333Z,15.60
2022-08-05T16:33:48.409Z,15.38
2022-08-05T16:36:20.160Z,14.65
2022-08-05T16:38:54.757Z,14.85
2022-08-05T16:42:14.655Z,14.63
2022-08-05T16:44:13.830Z,14.55
2022-08-05T16:46:56.109Z,14.45
2022-08-05T16:49:23.614Z,14.55
2022-08-05T16:51:54.777Z,13.70
2022-08-05T16:54:27.529Z,13.52
2022-08-05T16:56:58.937Z,14.05
2022-08-05T16:59:27.683Z,13.80
2022-08-05T17:01:55.694Z,13.90
2022-08-05T17:04:28.184Z,14.00
2022-08-05T17:07:01.863Z,13.20
2022-08-05T17:09:38.957Z,13.55
2022-08-05T17:12:17.885Z,14.20
2022-08-05T17:14:49.697Z,16.27
2022-08-05T17:17:16.537Z,17.10
2022-08-05T17:19:46.437Z,18.17
2022-08-05T17:22:24.409Z,17.42
2022-08-05T17:24:57.807Z,17.52
2022-08-05T17:27:27.226Z,18.15
2022-08-05T17:30:02.674Z,18.00
2022-08-05T17:32:30.180Z,18.15
2022-08-05T17:35:00.569Z,18.20
2022-08-05T17:37:41.232Z,18.27
2022-08-05T17:40:14.952Z,17.90
2022-08-05T17:42:49.707Z,19.30
2022-08-05T17:45:29.488Z,19.33
2022-08-05T17:47:56.489Z,20.52
2022-08-05T17:50:28.149Z,19.55
2022-08-05T17:53:01.533Z,20.75
2022-08-05T17:55:38.332Z,18.88
2022-08-05T17:58:09.586Z,20.65
2022-08-05T18:00:44.251Z,20.77
2022-08-05T18:03:12.141Z,20.85
2022-08-05T18:05:55.298Z,20.52
2022-08-05T18:08:28.359Z,20.65
2022-08-05T18:10:55.036Z,20.13
2022-08-05T18:13:21.790Z,20.15
2022-08-05T18:18:21.311Z,21.48
2022-08-05T18:20:53.211Z,22.90
2022-08-05T18:23:21.909Z,21.52
2022-08-05T18:25:57.378Z,20.92
2022-08-05T18:28:28.454Z,21.35
2022-08-05T18:33:23.094Z,19.42
2022-08-05T18:36:03.363Z,19.83
2022-08-05T18:38:35.973Z,19.02
2022-08-05T18:41:55.277Z,19.17
2022-08-05T18:43:50.632Z,18.48
2022-08-05T18:46:19.842Z,17.20
2022-08-05T18:48:52.494Z,17.20
2022-08-05T18:52:06.598Z,16.90
2022-08-05T18:54:27.559Z,17.00
2022-08-05T18:56:57.583Z,17.08
2022-08-05T18:59:43.058Z,16.85
2022-08-05T19:02:28.323Z,15.70
2022-08-05T19:05:02.193Z,16.50
2022-08-05T19:07:46.597Z,16.40
2022-08-05T19:10:19.073Z,15.83
2022-08-05T19:12:54.508Z,15.70
2022-08-05T19:15:57.788Z,15.10
2022-08-05T19:18:10.442Z,14.68
2022-08-05T19:20:41.592Z,16.00
2022-08-05T19:24:04.235Z,14.93
2022-08-05T19:26:01.848Z,14.98
2022-08-05T19:28:30.914Z,15.07
2022-08-05T19:30:57.909Z,14.63
2022-08-05T19:33:35.437Z,14.02
2022-08-05T19:36:06.597Z,14.27
2022-08-05T19:38:35.951Z,14.00
2022-08-05T19:41:07.317Z,14.05
2022-08-05T19:44:06.491Z,14.38
2022-08-05T19:46:29.406Z,13.73
2022-08-05T19:49:03.572Z,13.60
2022-08-05T19:52:09.061Z,13.60
2022-08-05T19:54:29.476Z,13.60
2022-08-05T19:56:59.884Z,13.75
2022-08-05T19:59:56.037Z,13.68
2022-08-05T20:02:17.563Z,13.90
2022-08-05T20:04:46.240Z,13.32
2022-08-05T20:07:15.466Z,14.70
2022-08-05T20:09:54.421Z,13.73
2022-08-05T20:12:24.413Z,14.38
2022-08-05T20:14:52.939Z,14.45
2022-08-05T20:17:23.257Z,14.35
2022-08-05T20:19:51.097Z,14.55
2022-08-05T20:22:25.077Z,14.23
2022-08-05T20:24:55.292Z,14.68
2022-08-05T20:27:26.926Z,14.50
2022-08-05T20:29:57.655Z,14.95
2022-08-05T20:32:25.435Z,14.48
2022-08-05T20:34:52.232Z,14.48
2022-08-05T20:38:04.658Z,14.88
2022-08-05T20:40:07.064Z,15.40
2022-08-05T20:42:34.763Z,14.95
2022-08-05T20:45:03.044Z,14.23
2022-08-05T20:47:32.017Z,13.93
2022-08-05T20:49:59.769Z,14.18
2022-08-05T20:52:29.514Z,13.75
2022-08-05T20:55:54.197Z,14.20
2022-08-05T20:57:44.831Z,15.75
2022-08-05T21:00:35.073Z,14.77
2022-08-05T21:03:04.857Z,14.52
2022-08-05T21:05:48.214Z,14.38
2022-08-05T21:08:47.362Z,14.50
2022-08-05T21:12:08.866Z,14.00
2022-08-05T21:14:02.673Z,13.75
2022-08-05T21:16:30.774Z,13.75
2022-08-05T21:19:01.888Z,14.00
2022-08-05T21:21:39.206Z,13.88
2022-08-05T21:24:12.998Z,14.10
2022-08-05T21:26:41.224Z,13.77
2022-08-05T21:29:10.083Z,13.73
2022-08-05T21:31:41.283Z,14.40
2022-08-05T21:34:10.422Z,15.02
2022-08-05T21:36:38.746Z,15.10
2022-08-05T21:39:05.670Z,14.60
2022-08-05T21:41:36.318Z,14.55
2022-08-05T21:44:05.053Z,14.38
2022-08-05T21:46:34.329Z,14.50
2022-08-05T21:49:04.572Z,13.75
2022-08-05T21:52:22.886Z,14.27
2022-08-05T21:54:27.797Z,14.07
2022-08-05T21:57:15.444Z,14.43
2022-08-05T22:00:02.137Z,14.02
2022-08-05T22:02:41.732Z,14.18
2022-08-05T22:05:11.775Z,14.02
2022-08-05T22:08:01.981Z,14.10
2022-08-05T22:10:27.564Z,14.25
2022-08-05T22:12:57.274Z,14.20
2022-08-05T22:16:04.680Z,14.27
2022-08-05T22:18:12.323Z,14.32
2022-08-05T22:20:41.357Z,14.43
2022-08-05T22:24:02.056Z,14.23
2022-08-05T22:26:33.730Z,14.82
2022-08-05T22:29:00.474Z,14.77
2022-08-05T22:31:29.907Z,14.40
2022-08-05T22:34:01.245Z,14.30
2022-08-05T22:36:29.237Z,15.00
2022-08-05T22:38:56.446Z,14.80
2022-08-05T22:42:04.266Z,14.23
2022-08-05T22:44:11.820Z,14.18
2022-08-05T22:46:40.659Z,14.65
2022-08-05T22:49:46.162Z,14.15
2022-08-05T22:52:04.288Z,14.07
2022-08-05T22:54:33.643Z,13.82
2022-08-05T22:57:00.405Z,13.73
2022-08-05T22:59:45.218Z,13.85
2022-08-05T23:02:28.750Z,14.45
2022-08-05T23:04:55.855Z,15.23
2022-08-05T23:07:22.588Z,14.25
2022-08-05T23:09:57.728Z,14.18
2022-08-05T23:12:32.732Z,14.48
2022-08-05T23:15:03.421Z,14.70
2022-08-05T23:17:34.450Z,13.93
2022-08-05T23:20:10.425Z,14.70
2022-08-05T23:22:43.885Z,14.35
2022-08-05T23:25:17.564Z,14.80
2022-08-05T23:28:02.443Z,14.50
2022-08-05T23:30:31.302Z,14.38
2022-08-05T23:32:58.866Z,14.50
2022-08-05T23:35:28.429Z,14.13
2022-08-05T23:38:01.086Z,14.07
2022-08-05T23:40:27.777Z,14.93
2022-08-05T23:42:54.666Z,22.98
2022-08-05T23:45:23.770Z,29.48
2022-08-05T23:47:53.871Z,30.73
2022-08-05T23:50:26.529Z,30.20
2022-08-05T23:52:55.386Z,30.00
2022-08-05T23:55:22.516Z,29.75
2022-08-05T23:57:57.853Z,29.17
